sensor_id;sensor_type;location;lat;lon;timestamp;temperature;humidity
48007;DHT22;33771;48.180;11.400;2023-07-13T00:01:27;18.20;99.90
48007;DHT22;33771;48.180;11.400;2023-07-13T00:03:53;18.20;99.90
48007;DHT22;33771;48.180;11.400;2023-07-13T00:06:18;18.20;99.90
48007;DHT22;33771;48.180;11.400;2023-07-13T00:08:45;18.20;99.90
48007;DHT22;33771;48.180;11.400;2023-07-13T00:11:12;18.20;99.90
48007;DHT22;33771;48.180;11.400;2023-07-13T00:13:38;18.10;99.90
48007;DHT22;33771;48.180;11.400;2023-07-13T00:16:05;18.20;99.90
48007;DHT22;33771;48.180;11.400;2023-07-13T00:18:30;18.10;99.90
48007;DHT22;33771;48.180;11.400;2023-07-13T00:20:56;18.10;99.90
48007;DHT22;33771;48.180;11.400;2023-07-13T00:23:31;18.10;99.90
48007;DHT22;33771;48.180;11.400;2023-07-13T00:25:59;18.10;99.90
48007;DHT22;33771;48.180;11.400;2023-07-13T00:28:25;18.10;99.90
48007;DHT22;33771;48.180;11.400;2023-07-13T00:30:50;18.10;99.90
48007;DHT22;33771;48.180;11.400;2023-07-13T00:33:16;18.10;99.90
48007;DHT22;33771;48.180;11.400;2023-07-13T00:35:41;18.10;99.90
48007;DHT22;33771;48.180;11.400;2023-07-13T00:38:09;18.10;99.90
48007;DHT22;33771;48.180;11.400;2023-07-13T00:40:35;18.10;99.90
48007;DHT22;33771;48.180;11.400;2023-07-13T00:43:01;18.10;99.90
48007;DHT22;33771;48.180;11.400;2023-07-13T00:47:54;18.10;99.90
48007;DHT22;33771;48.180;11.400;2023-07-13T00:50:21;18.10;99.90
48007;DHT22;33771;48.180;11.400;2023-07-13T00:52:50;18.10;99.90
48007;DHT22;33771;48.180;11.400;2023-07-13T00:55:18;18.10;99.90
48007;DHT22;33771;48.180;11.400;2023-07-13T00:57:46;18.10;99.90
48007;DHT22;33771;48.180;11.400;2023-07-13T01:00:12;18.10;99.90
48007;DHT22;33771;48.180;11.400;2023-07-13T01:02:39;18.10;99.90
48007;DHT22;33771;48.180;11.400;2023-07-13T01:05:16;18.10;99.90
48007;DHT22;33771;48.180;11.400;2023-07-13T01:07:43;18.10;99.90
48007;DHT22;33771;48.180;11.400;2023-07-13T01:10:13;18.10;99.90
48007;DHT22;33771;48.180;11.400;2023-07-13T01:12:39;18.00;99.90
48007;DHT22;33771;48.180;11.400;2023-07-13T01:15:32;18.10;99.90
48007;DHT22;33771;48.180;11.400;2023-07-13T01:17:51;18.10;99.90
48007;DHT22;33771;48.180;11.400;2023-07-13T01:20:17;18.10;99.90
48007;DHT22;33771;48.180;11.400;2023-07-13T01:22:43;18.10;99.90
48007;DHT22;33771;48.180;11.400;2023-07-13T01:25:09;18.10;99.90
48007;DHT22;33771;48.180;11.400;2023-07-13T01:27:34;18.10;99.90
48007;DHT22;33771;48.180;11.400;2023-07-13T01:30:01;18.10;99.90
48007;DHT22;33771;48.180;11.400;2023-07-13T01:32:29;18.10;99.90
48007;DHT22;33771;48.180;11.400;2023-07-13T01:34:56;18.00;99.90
48007;DHT22;33771;48.180;11.400;2023-07-13T01:37:24;18.00;99.90
48007;DHT22;33771;48.180;11.400;2023-07-13T01:39:49;18.00;99.90
48007;DHT22;33771;48.180;11.400;2023-07-13T01:42:15;18.00;99.90
48007;DHT22;33771;48.180;11.400;2023-07-13T01:44:41;18.00;99.90
48007;DHT22;33771;48.180;11.400;2023-07-13T01:47:06;18.00;99.90
48007;DHT22;33771;48.180;11.400;2023-07-13T01:49:32;18.10;99.90
48007;DHT22;33771;48.180;11.400;2023-07-13T01:51:58;18.10;99.90
48007;DHT22;33771;48.180;11.400;2023-07-13T01:54:23;18.10;99.90
48007;DHT22;33771;48.180;11.400;2023-07-13T01:56:49;18.10;99.90
48007;DHT22;33771;48.180;11.400;2023-07-13T01:59:14;18.10;99.90
48007;DHT22;33771;48.180;11.400;2023-07-13T02:01:40;18.10;99.90
48007;DHT22;33771;48.180;11.400;2023-07-13T02:04:05;18.10;99.90
48007;DHT22;33771;48.180;11.400;2023-07-13T02:06:31;18.10;99.90
48007;DHT22;33771;48.180;11.400;2023-07-13T02:08:58;18.10;99.90
48007;DHT22;33771;48.180;11.400;2023-07-13T02:11:23;18.10;99.90
48007;DHT22;33771;48.180;11.400;2023-07-13T02:13:50;18.10;99.90
48007;DHT22;33771;48.180;11.400;2023-07-13T02:16:16;18.10;99.90
48007;DHT22;33771;48.180;11.400;2023-07-13T02:18:41;18.10;99.90
48007;DHT22;33771;48.180;11.400;2023-07-13T02:21:07;18.10;99.90
48007;DHT22;33771;48.180;11.400;2023-07-13T02:23:32;18.10;99.90
48007;DHT22;33771;48.180;11.400;2023-07-13T02:25:59;18.10;99.90
48007;DHT22;33771;48.180;11.400;2023-07-13T02:28:25;18.10;99.90
48007;DHT22;33771;48.180;11.400;2023-07-13T02:30:51;18.10;99.90
48007;DHT22;33771;48.180;11.400;2023-07-13T02:33:17;18.10;99.90
48007;DHT22;33771;48.180;11.400;2023-07-13T02:35:42;18.10;99.90
48007;DHT22;33771;48.180;11.400;2023-07-13T02:38:08;18.10;99.90
48007;DHT22;33771;48.180;11.400;2023-07-13T02:40:34;18.10;99.90
48007;DHT22;33771;48.180;11.400;2023-07-13T02:43:01;18.10;99.90
48007;DHT22;33771;48.180;11.400;2023-07-13T02:45:26;18.00;99.90
48007;DHT22;33771;48.180;11.400;2023-07-13T02:47:52;18.00;99.90
48007;DHT22;33771;48.180;11.400;2023-07-13T02:50:18;18.00;99.90
48007;DHT22;33771;48.180;11.400;2023-07-13T02:52:43;17.90;99.90
48007;DHT22;33771;48.180;11.400;2023-07-13T02:55:09;17.80;99.90
48007;DHT22;33771;48.180;11.400;2023-07-13T02:57:35;17.80;99.90
48007;DHT22;33771;48.180;11.400;2023-07-13T03:00:02;17.80;99.90
48007;DHT22;33771;48.180;11.400;2023-07-13T03:02:31;17.70;99.90
48007;DHT22;33771;48.180;11.400;2023-07-13T03:04:57;17.70;99.90
48007;DHT22;33771;48.180;11.400;2023-07-13T03:07:23;17.70;99.90
48007;DHT22;33771;48.180;11.400;2023-07-13T03:09:48;17.70;99.90
48007;DHT22;33771;48.180;11.400;2023-07-13T03:12:14;17.70;99.90
48007;DHT22;33771;48.180;11.400;2023-07-13T03:14:39;17.60;99.90
48007;DHT22;33771;48.180;11.400;2023-07-13T03:17:05;17.60;99.90
48007;DHT22;33771;48.180;11.400;2023-07-13T03:19:30;17.60;99.90
48007;DHT22;33771;48.180;11.400;2023-07-13T03:21:56;17.50;99.90
48007;DHT22;33771;48.180;11.400;2023-07-13T03:24:21;17.50;99.90
48007;DHT22;33771;48.180;11.400;2023-07-13T03:26:48;17.50;99.90
48007;DHT22;33771;48.180;11.400;2023-07-13T03:29:14;17.50;99.90
48007;DHT22;33771;48.180;11.400;2023-07-13T03:31:40;17.40;99.90
48007;DHT22;33771;48.180;11.400;2023-07-13T03:34:05;17.50;99.90
48007;DHT22;33771;48.180;11.400;2023-07-13T03:36:31;17.40;99.90
48007;DHT22;33771;48.180;11.400;2023-07-13T03:39:00;17.30;99.90
48007;DHT22;33771;48.180;11.400;2023-07-13T03:41:26;17.30;99.90
48007;DHT22;33771;48.180;11.400;2023-07-13T03:43:52;17.20;99.90
48007;DHT22;33771;48.180;11.400;2023-07-13T03:46:18;17.20;99.90
48007;DHT22;33771;48.180;11.400;2023-07-13T03:48:45;17.10;99.90
48007;DHT22;33771;48.180;11.400;2023-07-13T03:51:13;17.10;99.90
48007;DHT22;33771;48.180;11.400;2023-07-13T03:53:41;17.10;99.90
48007;DHT22;33771;48.180;11.400;2023-07-13T03:56:08;17.00;99.90
48007;DHT22;33771;48.180;11.400;2023-07-13T03:58:43;17.00;99.90
48007;DHT22;33771;48.180;11.400;2023-07-13T04:01:11;17.00;99.90
48007;DHT22;33771;48.180;11.400;2023-07-13T04:03:38;17.00;99.90
48007;DHT22;33771;48.180;11.400;2023-07-13T04:06:05;17.00;99.90
48007;DHT22;33771;48.180;11.400;2023-07-13T04:08:33;17.00;99.90
48007;DHT22;33771;48.180;11.400;2023-07-13T04:10:59;16.90;99.90
48007;DHT22;33771;48.180;11.400;2023-07-13T04:13:25;17.00;99.90
48007;DHT22;33771;48.180;11.400;2023-07-13T04:15:51;17.00;99.90
48007;DHT22;33771;48.180;11.400;2023-07-13T04:18:17;17.00;99.90
48007;DHT22;33771;48.180;11.400;2023-07-13T04:20:43;17.00;99.90
48007;DHT22;33771;48.180;11.400;2023-07-13T04:23:09;17.00;99.90
48007;DHT22;33771;48.180;11.400;2023-07-13T04:25:34;17.00;99.90
48007;DHT22;33771;48.180;11.400;2023-07-13T04:28:00;17.00;99.90
48007;DHT22;33771;48.180;11.400;2023-07-13T04:30:26;17.00;99.90
48007;DHT22;33771;48.180;11.400;2023-07-13T04:32:52;17.00;99.90
48007;DHT22;33771;48.180;11.400;2023-07-13T04:35:19;17.10;99.90
48007;DHT22;33771;48.180;11.400;2023-07-13T04:37:47;17.10;99.90
48007;DHT22;33771;48.180;11.400;2023-07-13T04:40:13;17.10;99.90
48007;DHT22;33771;48.180;11.400;2023-07-13T04:42:39;17.10;99.90
48007;DHT22;33771;48.180;11.400;2023-07-13T04:45:06;17.20;99.90
48007;DHT22;33771;48.180;11.400;2023-07-13T04:47:32;17.10;99.90
48007;DHT22;33771;48.180;11.400;2023-07-13T04:49:58;17.20;99.90
48007;DHT22;33771;48.180;11.400;2023-07-13T04:52:24;17.10;99.90
48007;DHT22;33771;48.180;11.400;2023-07-13T04:54:49;17.20;99.90
48007;DHT22;33771;48.180;11.400;2023-07-13T04:57:15;17.20;99.90
48007;DHT22;33771;48.180;11.400;2023-07-13T04:59:41;17.20;99.90
48007;DHT22;33771;48.180;11.400;2023-07-13T05:02:07;17.30;99.90
48007;DHT22;33771;48.180;11.400;2023-07-13T05:04:32;17.30;99.90
48007;DHT22;33771;48.180;11.400;2023-07-13T05:06:59;17.30;99.90
48007;DHT22;33771;48.180;11.400;2023-07-13T05:09:24;17.40;99.90
48007;DHT22;33771;48.180;11.400;2023-07-13T05:11:50;17.40;99.90
48007;DHT22;33771;48.180;11.400;2023-07-13T05:14:16;17.40;99.90
48007;DHT22;33771;48.180;11.400;2023-07-13T05:16:42;17.40;99.90
48007;DHT22;33771;48.180;11.400;2023-07-13T05:19:08;17.40;99.90
48007;DHT22;33771;48.180;11.400;2023-07-13T05:21:34;17.40;99.90
48007;DHT22;33771;48.180;11.400;2023-07-13T05:23:59;17.40;99.90
48007;DHT22;33771;48.180;11.400;2023-07-13T05:26:25;17.40;99.90
48007;DHT22;33771;48.180;11.400;2023-07-13T05:28:51;17.40;99.90
48007;DHT22;33771;48.180;11.400;2023-07-13T05:31:16;17.40;99.90
48007;DHT22;33771;48.180;11.400;2023-07-13T05:33:42;17.40;99.90
48007;DHT22;33771;48.180;11.400;2023-07-13T05:36:07;17.50;99.90
48007;DHT22;33771;48.180;11.400;2023-07-13T05:38:33;17.50;99.90
48007;DHT22;33771;48.180;11.400;2023-07-13T05:40:59;17.50;99.90
48007;DHT22;33771;48.180;11.400;2023-07-13T05:43:25;17.60;99.90
48007;DHT22;33771;48.180;11.400;2023-07-13T05:45:53;17.60;99.90
48007;DHT22;33771;48.180;11.400;2023-07-13T05:48:18;17.70;99.90
48007;DHT22;33771;48.180;11.400;2023-07-13T05:50:44;17.90;99.90
48007;DHT22;33771;48.180;11.400;2023-07-13T05:53:11;17.90;99.90
48007;DHT22;33771;48.180;11.400;2023-07-13T05:55:44;18.00;99.90
48007;DHT22;33771;48.180;11.400;2023-07-13T05:58:12;18.10;99.90
48007;DHT22;33771;48.180;11.400;2023-07-13T06:00:38;18.10;99.90
48007;DHT22;33771;48.180;11.400;2023-07-13T06:03:04;18.20;99.90
48007;DHT22;33771;48.180;11.400;2023-07-13T06:05:29;18.30;99.90
48007;DHT22;33771;48.180;11.400;2023-07-13T06:07:55;18.40;99.90
48007;DHT22;33771;48.180;11.400;2023-07-13T06:10:21;18.50;99.90
48007;DHT22;33771;48.180;11.400;2023-07-13T06:12:46;18.70;99.90
48007;DHT22;33771;48.180;11.400;2023-07-13T06:15:12;18.90;99.90
48007;DHT22;33771;48.180;11.400;2023-07-13T06:17:37;19.00;99.90
48007;DHT22;33771;48.180;11.400;2023-07-13T06:20:03;19.30;99.90
48007;DHT22;33771;48.180;11.400;2023-07-13T06:22:29;19.50;99.90
48007;DHT22;33771;48.180;11.400;2023-07-13T06:24:55;19.60;99.90
48007;DHT22;33771;48.180;11.400;2023-07-13T06:27:20;19.70;99.90
48007;DHT22;33771;48.180;11.400;2023-07-13T06:29:46;19.70;99.90
48007;DHT22;33771;48.180;11.400;2023-07-13T06:32:11;19.70;99.90
48007;DHT22;33771;48.180;11.400;2023-07-13T06:34:37;19.60;99.90
48007;DHT22;33771;48.180;11.400;2023-07-13T06:37:02;19.60;99.90
48007;DHT22;33771;48.180;11.400;2023-07-13T06:39:28;19.50;99.90
48007;DHT22;33771;48.180;11.400;2023-07-13T06:41:53;19.50;99.90
48007;DHT22;33771;48.180;11.400;2023-07-13T06:44:19;19.30;99.90
48007;DHT22;33771;48.180;11.400;2023-07-13T06:46:44;19.30;99.90
48007;DHT22;33771;48.180;11.400;2023-07-13T06:49:10;19.20;99.90
48007;DHT22;33771;48.180;11.400;2023-07-13T06:51:35;19.20;99.90
48007;DHT22;33771;48.180;11.400;2023-07-13T06:54:02;19.20;99.90
48007;DHT22;33771;48.180;11.400;2023-07-13T06:56:27;19.20;99.90
48007;DHT22;33771;48.180;11.400;2023-07-13T06:58:53;19.20;99.90
48007;DHT22;33771;48.180;11.400;2023-07-13T07:01:18;19.30;99.90
48007;DHT22;33771;48.180;11.400;2023-07-13T07:03:44;19.40;99.90
48007;DHT22;33771;48.180;11.400;2023-07-13T07:06:19;19.40;99.90
48007;DHT22;33771;48.180;11.400;2023-07-13T07:08:45;19.40;99.90
48007;DHT22;33771;48.180;11.400;2023-07-13T07:11:13;19.40;99.90
48007;DHT22;33771;48.180;11.400;2023-07-13T07:13:39;19.40;99.90
48007;DHT22;33771;48.180;11.400;2023-07-13T07:16:04;19.30;99.90
48007;DHT22;33771;48.180;11.400;2023-07-13T07:18:30;19.20;99.90
48007;DHT22;33771;48.180;11.400;2023-07-13T07:20:55;19.20;99.90
48007;DHT22;33771;48.180;11.400;2023-07-13T07:23:21;19.20;99.90
48007;DHT22;33771;48.180;11.400;2023-07-13T07:25:47;19.10;99.90
48007;DHT22;33771;48.180;11.400;2023-07-13T07:28:15;19.10;99.90
48007;DHT22;33771;48.180;11.400;2023-07-13T07:30:43;19.10;99.90
48007;DHT22;33771;48.180;11.400;2023-07-13T07:33:09;19.10;99.90
48007;DHT22;33771;48.180;11.400;2023-07-13T07:35:35;19.00;99.90
48007;DHT22;33771;48.180;11.400;2023-07-13T07:38:00;19.10;99.90
48007;DHT22;33771;48.180;11.400;2023-07-13T07:40:26;19.10;99.90
48007;DHT22;33771;48.180;11.400;2023-07-13T07:42:52;19.10;99.90
48007;DHT22;33771;48.180;11.400;2023-07-13T07:45:17;19.10;99.90
48007;DHT22;33771;48.180;11.400;2023-07-13T07:47:43;19.10;99.90
48007;DHT22;33771;48.180;11.400;2023-07-13T07:50:09;19.00;99.90
48007;DHT22;33771;48.180;11.400;2023-07-13T07:52:35;19.00;99.90
48007;DHT22;33771;48.180;11.400;2023-07-13T07:55:00;19.00;99.90
48007;DHT22;33771;48.180;11.400;2023-07-13T07:57:26;18.90;99.90
48007;DHT22;33771;48.180;11.400;2023-07-13T07:59:51;18.90;99.90
48007;DHT22;33771;48.180;11.400;2023-07-13T08:02:17;18.80;99.90
48007;DHT22;33771;48.180;11.400;2023-07-13T08:04:42;18.80;99.90
48007;DHT22;33771;48.180;11.400;2023-07-13T08:07:09;18.70;99.90
48007;DHT22;33771;48.180;11.400;2023-07-13T08:09:34;18.70;99.90
48007;DHT22;33771;48.180;11.400;2023-07-13T08:12:00;18.60;99.90
48007;DHT22;33771;48.180;11.400;2023-07-13T08:14:25;18.50;99.90
48007;DHT22;33771;48.180;11.400;2023-07-13T08:16:51;18.40;99.90
48007;DHT22;33771;48.180;11.400;2023-07-13T08:19:17;18.30;99.90
48007;DHT22;33771;48.180;11.400;2023-07-13T08:21:42;18.40;99.90
48007;DHT22;33771;48.180;11.400;2023-07-13T08:24:09;18.30;99.90
48007;DHT22;33771;48.180;11.400;2023-07-13T08:26:36;18.30;99.90
48007;DHT22;33771;48.180;11.400;2023-07-13T08:29:02;18.40;99.90
48007;DHT22;33771;48.180;11.400;2023-07-13T08:31:28;18.50;99.90
48007;DHT22;33771;48.180;11.400;2023-07-13T08:33:54;18.70;99.90
48007;DHT22;33771;48.180;11.400;2023-07-13T08:36:19;18.90;99.90
48007;DHT22;33771;48.180;11.400;2023-07-13T08:38:45;19.00;99.90
48007;DHT22;33771;48.180;11.400;2023-07-13T08:41:16;19.10;99.90
48007;DHT22;33771;48.180;11.400;2023-07-13T08:43:45;19.30;99.90
48007;DHT22;33771;48.180;11.400;2023-07-13T08:48:59;19.30;99.90
48007;DHT22;33771;48.180;11.400;2023-07-13T08:51:52;19.30;99.90
48007;DHT22;33771;48.180;11.400;2023-07-13T08:54:36;19.20;99.90
48007;DHT22;33771;48.180;11.400;2023-07-13T08:57:16;19.20;99.90
48007;DHT22;33771;48.180;11.400;2023-07-13T08:59:43;19.10;99.90
48007;DHT22;33771;48.180;11.400;2023-07-13T09:05:03;19.10;99.90
48007;DHT22;33771;48.180;11.400;2023-07-13T09:10:43;19.20;99.90
48007;DHT22;33771;48.180;11.400;2023-07-13T09:13:43;19.20;99.90
48007;DHT22;33771;48.180;11.400;2023-07-13T09:16:11;19.30;99.90
48007;DHT22;33771;48.180;11.400;2023-07-13T09:18:41;19.40;99.90
48007;DHT22;33771;48.180;11.400;2023-07-13T09:21:22;19.50;99.90
48007;DHT22;33771;48.180;11.400;2023-07-13T09:23:52;19.60;99.90
48007;DHT22;33771;48.180;11.400;2023-07-13T09:26:21;19.80;99.90
48007;DHT22;33771;48.180;11.400;2023-07-13T09:28:55;19.80;99.90
48007;DHT22;33771;48.180;11.400;2023-07-13T09:31:34;19.80;99.90
48007;DHT22;33771;48.180;11.400;2023-07-13T09:34:02;19.80;99.90
48007;DHT22;33771;48.180;11.400;2023-07-13T09:36:30;19.90;99.90
48007;DHT22;33771;48.180;11.400;2023-07-13T09:42:07;19.90;99.90
48007;DHT22;33771;48.180;11.400;2023-07-13T09:44:52;20.00;99.90
48007;DHT22;33771;48.180;11.400;2023-07-13T09:47:25;20.10;99.90
48007;DHT22;33771;48.180;11.400;2023-07-13T09:50:03;20.30;99.90
48007;DHT22;33771;48.180;11.400;2023-07-13T09:52:47;20.40;99.90
48007;DHT22;33771;48.180;11.400;2023-07-13T09:57:49;20.60;99.90
48007;DHT22;33771;48.180;11.400;2023-07-13T10:00:25;20.70;99.90
48007;DHT22;33771;48.180;11.400;2023-07-13T10:03:00;20.80;99.90
48007;DHT22;33771;48.180;11.400;2023-07-13T10:05:26;21.00;99.90
48007;DHT22;33771;48.180;11.400;2023-07-13T10:07:51;21.20;99.90
48007;DHT22;33771;48.180;11.400;2023-07-13T10:10:20;21.60;99.90
48007;DHT22;33771;48.180;11.400;2023-07-13T10:12:46;22.00;99.90
48007;DHT22;33771;48.180;11.400;2023-07-13T10:15:23;22.30;99.90
48007;DHT22;33771;48.180;11.400;2023-07-13T10:17:51;22.50;99.90
48007;DHT22;33771;48.180;11.400;2023-07-13T10:20:17;22.70;99.90
48007;DHT22;33771;48.180;11.400;2023-07-13T10:22:54;22.60;99.90
48007;DHT22;33771;48.180;11.400;2023-07-13T10:25:25;22.60;99.90
48007;DHT22;33771;48.180;11.400;2023-07-13T10:28:01;22.60;99.90
48007;DHT22;33771;48.180;11.400;2023-07-13T10:30:31;22.60;99.90
48007;DHT22;33771;48.180;11.400;2023-07-13T10:33:00;22.60;99.90
48007;DHT22;33771;48.180;11.400;2023-07-13T10:35:29;22.50;99.90
48007;DHT22;33771;48.180;11.400;2023-07-13T10:38:03;22.40;99.90
48007;DHT22;33771;48.180;11.400;2023-07-13T10:41:03;22.40;99.90
48007;DHT22;33771;48.180;11.400;2023-07-13T10:43:42;22.40;99.90
48007;DHT22;33771;48.180;11.400;2023-07-13T10:46:12;22.40;99.90
48007;DHT22;33771;48.180;11.400;2023-07-13T10:48:39;22.60;99.90
48007;DHT22;33771;48.180;11.400;2023-07-13T10:51:06;22.80;99.90
48007;DHT22;33771;48.180;11.400;2023-07-13T10:53:37;23.00;99.90
48007;DHT22;33771;48.180;11.400;2023-07-13T10:56:05;23.40;99.90
48007;DHT22;33771;48.180;11.400;2023-07-13T10:58:36;23.60;99.90
48007;DHT22;33771;48.180;11.400;2023-07-13T11:01:16;23.90;99.90
48007;DHT22;33771;48.180;11.400;2023-07-13T11:03:55;24.10;99.90
48007;DHT22;33771;48.180;11.400;2023-07-13T11:08:52;24.50;99.90
48007;DHT22;33771;48.180;11.400;2023-07-13T11:18:53;25.10;99.90
48007;DHT22;33771;48.180;11.400;2023-07-13T11:21:34;25.40;99.90
48007;DHT22;33771;48.180;11.400;2023-07-13T11:24:17;25.50;99.90
48007;DHT22;33771;48.180;11.400;2023-07-13T11:31:53;25.50;99.90
48007;DHT22;33771;48.180;11.400;2023-07-13T11:34:29;25.50;99.90
48007;DHT22;33771;48.180;11.400;2023-07-13T11:36:57;25.50;99.90
48007;DHT22;33771;48.180;11.400;2023-07-13T11:39:36;25.70;99.90
48007;DHT22;33771;48.180;11.400;2023-07-13T11:42:05;26.00;99.90
48007;DHT22;33771;48.180;11.400;2023-07-13T11:44:34;26.20;99.90
48007;DHT22;33771;48.180;11.400;2023-07-13T11:47:09;26.40;99.90
48007;DHT22;33771;48.180;11.400;2023-07-13T11:49:45;26.40;99.90
48007;DHT22;33771;48.180;11.400;2023-07-13T11:52:19;26.60;99.90
48007;DHT22;33771;48.180;11.400;2023-07-13T11:54:53;26.60;99.90
48007;DHT22;33771;48.180;11.400;2023-07-13T12:00:09;26.30;99.90
48007;DHT22;33771;48.180;11.400;2023-07-13T12:02:39;26.00;99.90
48007;DHT22;33771;48.180;11.400;2023-07-13T12:05:11;25.70;99.90
48007;DHT22;33771;48.180;11.400;2023-07-13T12:07:38;25.50;99.90
48007;DHT22;33771;48.180;11.400;2023-07-13T12:10:24;25.40;99.90
48007;DHT22;33771;48.180;11.400;2023-07-13T12:12:58;25.30;99.90
48007;DHT22;33771;48.180;11.400;2023-07-13T12:15:36;25.10;99.90
48007;DHT22;33771;48.180;11.400;2023-07-13T12:18:02;24.90;99.90
48007;DHT22;33771;48.180;11.400;2023-07-13T12:20:35;24.80;99.90
48007;DHT22;33771;48.180;11.400;2023-07-13T12:23:05;24.80;99.90
48007;DHT22;33771;48.180;11.400;2023-07-13T12:25:31;24.90;99.90
48007;DHT22;33771;48.180;11.400;2023-07-13T12:27:57;24.80;99.90
48007;DHT22;33771;48.180;11.400;2023-07-13T12:30:31;24.60;99.90
48007;DHT22;33771;48.180;11.400;2023-07-13T12:33:10;24.40;99.90
48007;DHT22;33771;48.180;11.400;2023-07-13T12:35:49;24.40;99.90
48007;DHT22;33771;48.180;11.400;2023-07-13T12:38:16;24.50;99.90
48007;DHT22;33771;48.180;11.400;2023-07-13T12:40:42;24.60;99.90
48007;DHT22;33771;48.180;11.400;2023-07-13T12:43:12;24.70;99.90
48007;DHT22;33771;48.180;11.400;2023-07-13T12:45:39;24.80;99.90
48007;DHT22;33771;48.180;11.400;2023-07-13T12:48:15;24.90;99.90
48007;DHT22;33771;48.180;11.400;2023-07-13T12:50:46;25.00;99.90
48007;DHT22;33771;48.180;11.400;2023-07-13T12:53:19;25.00;99.90
48007;DHT22;33771;48.180;11.400;2023-07-13T12:55:57;25.00;99.90
48007;DHT22;33771;48.180;11.400;2023-07-13T12:58:28;24.70;99.90
48007;DHT22;33771;48.180;11.400;2023-07-13T13:00:56;24.80;99.90
48007;DHT22;33771;48.180;11.400;2023-07-13T13:03:40;25.10;99.90
48007;DHT22;33771;48.180;11.400;2023-07-13T13:08:41;25.50;99.90
48007;DHT22;33771;48.180;11.400;2023-07-13T13:11:09;25.70;99.90
48007;DHT22;33771;48.180;11.400;2023-07-13T13:13:35;25.90;99.90
48007;DHT22;33771;48.180;11.400;2023-07-13T13:18:44;25.90;99.90
48007;DHT22;33771;48.180;11.400;2023-07-13T13:21:10;26.10;99.90
48007;DHT22;33771;48.180;11.400;2023-07-13T13:23:35;26.20;99.90
48007;DHT22;33771;48.180;11.400;2023-07-13T13:26:01;26.20;99.90
48007;DHT22;33771;48.180;11.400;2023-07-13T13:28:27;26.20;99.90
48007;DHT22;33771;48.180;11.400;2023-07-13T13:30:53;26.00;99.90
48007;DHT22;33771;48.180;11.400;2023-07-13T13:33:20;25.80;99.90
48007;DHT22;33771;48.180;11.400;2023-07-13T13:35:46;25.50;99.90
48007;DHT22;33771;48.180;11.400;2023-07-13T13:38:16;25.20;99.90
48007;DHT22;33771;48.180;11.400;2023-07-13T13:40:44;25.00;99.90
48007;DHT22;33771;48.180;11.400;2023-07-13T13:43:26;24.80;99.90
48007;DHT22;33771;48.180;11.400;2023-07-13T13:45:53;24.70;99.90
48007;DHT22;33771;48.180;11.400;2023-07-13T13:48:30;24.60;99.90
48007;DHT22;33771;48.180;11.400;2023-07-13T13:50:57;24.50;99.90
48007;DHT22;33771;48.180;11.400;2023-07-13T13:53:23;24.60;99.90
48007;DHT22;33771;48.180;11.400;2023-07-13T13:55:49;24.70;99.90
48007;DHT22;33771;48.180;11.400;2023-07-13T13:58:15;24.60;99.90
48007;DHT22;33771;48.180;11.400;2023-07-13T14:00:41;24.60;99.90
48007;DHT22;33771;48.180;11.400;2023-07-13T14:03:18;24.60;99.90
48007;DHT22;33771;48.180;11.400;2023-07-13T14:05:44;24.60;99.90
48007;DHT22;33771;48.180;11.400;2023-07-13T14:08:14;24.60;99.90
48007;DHT22;33771;48.180;11.400;2023-07-13T14:10:40;24.60;99.90
48007;DHT22;33771;48.180;11.400;2023-07-13T14:13:20;24.60;99.90
48007;DHT22;33771;48.180;11.400;2023-07-13T14:15:47;24.60;99.90
48007;DHT22;33771;48.180;11.400;2023-07-13T14:18:13;24.50;99.90
48007;DHT22;33771;48.180;11.400;2023-07-13T14:20:43;24.40;99.90
48007;DHT22;33771;48.180;11.400;2023-07-13T14:23:09;24.20;99.90
48007;DHT22;33771;48.180;11.400;2023-07-13T14:25:35;24.10;99.90
48007;DHT22;33771;48.180;11.400;2023-07-13T14:28:23;24.00;99.90
48007;DHT22;33771;48.180;11.400;2023-07-13T14:30:50;23.90;99.90
48007;DHT22;33771;48.180;11.400;2023-07-13T14:33:16;23.80;99.90
48007;DHT22;33771;48.180;11.400;2023-07-13T14:35:42;23.80;99.90
48007;DHT22;33771;48.180;11.400;2023-07-13T14:38:15;23.80;99.90
48007;DHT22;33771;48.180;11.400;2023-07-13T14:40:41;23.80;99.90
48007;DHT22;33771;48.180;11.400;2023-07-13T14:43:13;23.80;99.90
48007;DHT22;33771;48.180;11.400;2023-07-13T14:45:43;23.80;99.90
48007;DHT22;33771;48.180;11.400;2023-07-13T14:48:24;23.70;99.90
48007;DHT22;33771;48.180;11.400;2023-07-13T14:50:57;23.70;99.90
48007;DHT22;33771;48.180;11.400;2023-07-13T14:53:25;23.60;99.90
48007;DHT22;33771;48.180;11.400;2023-07-13T14:55:52;23.50;99.90
48007;DHT22;33771;48.180;11.400;2023-07-13T14:58:18;23.60;99.90
48007;DHT22;33771;48.180;11.400;2023-07-13T15:00:44;23.70;99.90
48007;DHT22;33771;48.180;11.400;2023-07-13T15:03:23;23.80;99.90
48007;DHT22;33771;48.180;11.400;2023-07-13T15:05:50;23.90;99.90
48007;DHT22;33771;48.180;11.400;2023-07-13T15:08:16;23.90;99.90
48007;DHT22;33771;48.180;11.400;2023-07-13T15:10:42;23.90;99.90
48007;DHT22;33771;48.180;11.400;2023-07-13T15:13:16;23.80;99.90
48007;DHT22;33771;48.180;11.400;2023-07-13T15:15:46;23.80;99.90
48007;DHT22;33771;48.180;11.400;2023-07-13T15:18:15;23.80;99.90
48007;DHT22;33771;48.180;11.400;2023-07-13T15:20:43;23.80;99.90
48007;DHT22;33771;48.180;11.400;2023-07-13T15:23:11;23.80;99.90
48007;DHT22;33771;48.180;11.400;2023-07-13T15:25:37;23.80;99.90
48007;DHT22;33771;48.180;11.400;2023-07-13T15:28:02;23.80;99.90
48007;DHT22;33771;48.180;11.400;2023-07-13T15:30:43;23.70;99.90
48007;DHT22;33771;48.180;11.400;2023-07-13T15:35:37;23.70;99.90
48007;DHT22;33771;48.180;11.400;2023-07-13T15:38:13;23.60;99.90
48007;DHT22;33771;48.180;11.400;2023-07-13T15:40:39;23.70;99.90
48007;DHT22;33771;48.180;11.400;2023-07-13T15:43:13;23.70;99.90
48007;DHT22;33771;48.180;11.400;2023-07-13T15:45:39;23.70;99.90
48007;DHT22;33771;48.180;11.400;2023-07-13T15:48:20;23.70;99.90
48007;DHT22;33771;48.180;11.400;2023-07-13T15:50:51;23.50;99.90
48007;DHT22;33771;48.180;11.400;2023-07-13T15:53:31;23.40;99.90
48007;DHT22;33771;48.180;11.400;2023-07-13T15:55:57;23.50;99.90
48007;DHT22;33771;48.180;11.400;2023-07-13T15:58:23;23.40;99.90
48007;DHT22;33771;48.180;11.400;2023-07-13T16:00:50;23.50;99.90
48007;DHT22;33771;48.180;11.400;2023-07-13T16:03:20;23.60;99.90
48007;DHT22;33771;48.180;11.400;2023-07-13T16:05:46;23.70;99.90